Frances Anne — WDE8555 — position and weather

sailwx.info

Track history (hours):
 
Tides and Currents Weather Stations Pressure Air Temp Water Temp Dewpoint Dewpoint Depression Visibility Wind Speed Wind Dir Waves Ship Positions

Frances Anne

Owner: Frances Anne Inc., West Creek, NJ. More information available from US FCC via Universal Licensing System and Coast Guard Vessel Documentation Center.

Last reported at 2017-Dec-18 01:31 UTC. Time now 2017-Dec-18 20:19 UTC.
Position N 39°47' W 074°02'.

Type: Fishing. MMSI: 367406910.

Date/timePositionNaut miles runAvg speedWind from/ knotsBaromVisibWave heightAir tempDewpointWater temp
2017-Dec-18 01:31N 39°47' W 074°02'1 7.9
2017-Dec-18 01:19N 39°46' W 074°04'2 2.4
2017-Dec-18 00:26N 39°46' W 074°07'0 0.0
2017-Dec-17 21:08N 39°46' W 074°07'0 0.0
2017-Dec-17 11:50N 39°46' W 074°07'0 0.0
2017-Dec-16 20:17N 39°46' W 074°07'2 0.1
2017-Dec-16 01:35N 39°46' W 074°04'2 0.0
2017-Dec-14 11:16N 39°46' W 074°07'0 0.0
2017-Dec-14 10:04N 39°46' W 074°07'0 0.0
2017-Dec-14 08:28N 39°46' W 074°07'0 0.0
2017-Dec-14 07:52N 39°46' W 074°07'0 0.0
2017-Dec-14 07:07N 39°46' W 074°07'0 0.0
2017-Dec-14 06:49N 39°46' W 074°07'0 0.0
2017-Dec-14 06:25N 39°46' W 074°07'0 0.0
2017-Dec-14 05:43N 39°46' W 074°07'0 0.0
2017-Dec-14 05:31N 39°46' W 074°07'0 0.0
2017-Dec-14 05:01N 39°46' W 074°07'0 0.0
2017-Dec-14 04:25N 39°46' W 074°06'0 0.0
2017-Dec-14 03:43N 39°46' W 074°07'0 0.0
2017-Dec-13 23:22N 39°46' W 074°06'0 0.0
2017-Dec-13 21:25N 39°46' W 074°07'0 0.0
2017-Dec-13 12:31N 39°46' W 074°07'0 0.1
2017-Dec-13 12:28N 39°46' W 074°07'0 0.0
2017-Dec-13 11:55N 39°46' W 074°07'0 0.0
2017-Dec-13 08:40N 39°46' W 074°07'0 0.0
2017-Dec-13 07:10N 39°46' W 074°07'0 0.0
2017-Dec-12 11:07N 39°46' W 074°07'2 0.1
2017-Dec-11 17:06N 39°47' W 074°04'2 1.7
2017-Dec-11 15:41N 39°46' W 074°07'0 0.0
2017-Dec-11 11:56N 39°46' W 074°07'0 0.0
2017-Dec-11 11:29N 39°46' W 074°07'0 0.0
2017-Dec-11 06:26N 39°46' W 074°07'0 0.0
2017-Dec-11 05:59N 39°46' W 074°07'0 0.0
2017-Dec-11 02:56N 39°46' W 074°07'0 0.0
2017-Dec-10 23:47N 39°46' W 074°07'0 0.0
2017-Dec-10 13:44N 39°46' W 074°07'0 0.0
2017-Dec-10 13:26N 39°46' W 074°07'0 0.0
2017-Dec-10 12:14N 39°46' W 074°07'0 0.0
2017-Dec-10 09:52N 39°46' W 074°07'0 0.0
2017-Dec-10 09:19N 39°46' W 074°07'0 0.0
2017-Dec-10 08:01N 39°46' W 074°07'0 0.0
2017-Dec-10 07:37N 39°46' W 074°07'0 0.0
2017-Dec-10 02:28N 39°46' W 074°07'0 0.0
2017-Dec-10 00:34N 39°46' W 074°07'0 0.0
2017-Dec-10 00:04N 39°46' W 074°07'0 0.0
2017-Dec-09 23:49N 39°46' W 074°07'0 0.0
2017-Dec-09 23:13N 39°46' W 074°07'0 0.0
2017-Dec-09 21:16N 39°46' W 074°07'0 0.0
2017-Dec-09 16:58N 39°46' W 074°07'0 0.0
2017-Dec-09 16:19N 39°46' W 074°07'0 0.0
2017-Dec-09 15:49N 39°46' W 074°07'0 0.0
2017-Dec-09 12:07N 39°46' W 074°07'0 0.0
2017-Dec-09 11:40N 39°46' W 074°07'0 0.0
2017-Dec-09 11:22N 39°46' W 074°07'0 0.0
2017-Dec-09 10:52N 39°46' W 074°07'0 0.0
2017-Dec-09 10:28N 39°46' W 074°07'0 0.0
2017-Dec-09 09:52N 39°46' W 074°07'0 0.0
2017-Dec-08 20:55N 39°46' W 074°07'0 0.0
2017-Dec-08 19:49N 39°46' W 074°07'0 0.0
2017-Dec-08 18:28N 39°46' W 074°07'0 0.0
2017-Dec-08 11:07N 39°46' W 074°07'0 0.0
2017-Dec-08 06:34N 39°46' W 074°07'0 0.0
2017-Dec-08 06:22N 39°46' W 074°07'0 0.0
2017-Dec-08 05:10N 39°46' W 074°07'0 0.0
2017-Dec-08 04:49N 39°46' W 074°07'0 0.0
2017-Dec-08 01:49N 39°46' W 074°07'  
Track history (hours):
 
Tides and Currents Weather Stations Pressure Air Temp Water Temp Dewpoint Dewpoint Depression Visibility Wind Speed Wind Dir Waves Ship Positions

Frances Anne

Owner: Frances Anne Inc., West Creek, NJ. More information available from US FCC via Universal Licensing System and Coast Guard Vessel Documentation Center.

Last reported at 2017-Dec-18 01:31 UTC. Time now 2017-Dec-18 20:19 UTC.
Position N 39°47' W 074°02'.

Type: Fishing. MMSI: 367406910.

Date/timePositionNaut miles runAvg speedWind from/ knotsBaromVisibWave heightAir tempDewpointWater temp
2017-Dec-18 01:31N 39°47' W 074°02'1 7.9
2017-Dec-18 01:19N 39°46' W 074°04'2 2.4
2017-Dec-18 00:26N 39°46' W 074°07'0 0.0
2017-Dec-17 21:08N 39°46' W 074°07'0 0.0
2017-Dec-17 11:50N 39°46' W 074°07'0 0.0
2017-Dec-16 20:17N 39°46' W 074°07'2 0.1
2017-Dec-16 01:35N 39°46' W 074°04'2 0.0
2017-Dec-14 11:16N 39°46' W 074°07'0 0.0
2017-Dec-14 10:04N 39°46' W 074°07'0 0.0
2017-Dec-14 08:28N 39°46' W 074°07'0 0.0
2017-Dec-14 07:52N 39°46' W 074°07'0 0.0
2017-Dec-14 07:07N 39°46' W 074°07'0 0.0
2017-Dec-14 06:49N 39°46' W 074°07'0 0.0
2017-Dec-14 06:25N 39°46' W 074°07'0 0.0
2017-Dec-14 05:43N 39°46' W 074°07'0 0.0
2017-Dec-14 05:31N 39°46' W 074°07'0 0.0
2017-Dec-14 05:01N 39°46' W 074°07'0 0.0
2017-Dec-14 04:25N 39°46' W 074°06'0 0.0
2017-Dec-14 03:43N 39°46' W 074°07'0 0.0
2017-Dec-13 23:22N 39°46' W 074°06'0 0.0
2017-Dec-13 21:25N 39°46' W 074°07'0 0.0
2017-Dec-13 12:31N 39°46' W 074°07'0 0.1
2017-Dec-13 12:28N 39°46' W 074°07'0 0.0
2017-Dec-13 11:55N 39°46' W 074°07'0 0.0
2017-Dec-13 08:40N 39°46' W 074°07'0 0.0
2017-Dec-13 07:10N 39°46' W 074°07'0 0.0
2017-Dec-12 11:07N 39°46' W 074°07'2 0.1
2017-Dec-11 17:06N 39°47' W 074°04'2 1.7
2017-Dec-11 15:41N 39°46' W 074°07'0 0.0
2017-Dec-11 11:56N 39°46' W 074°07'0 0.0
2017-Dec-11 11:29N 39°46' W 074°07'0 0.0
2017-Dec-11 06:26N 39°46' W 074°07'0 0.0
2017-Dec-11 05:59N 39°46' W 074°07'0 0.0
2017-Dec-11 02:56N 39°46' W 074°07'0 0.0
2017-Dec-10 23:47N 39°46' W 074°07'0 0.0
2017-Dec-10 13:44N 39°46' W 074°07'0 0.0
2017-Dec-10 13:26N 39°46' W 074°07'0 0.0
2017-Dec-10 12:14N 39°46' W 074°07'0 0.0
2017-Dec-10 09:52N 39°46' W 074°07'0 0.0
2017-Dec-10 09:19N 39°46' W 074°07'0 0.0
2017-Dec-10 08:01N 39°46' W 074°07'0 0.0
2017-Dec-10 07:37N 39°46' W 074°07'0 0.0
2017-Dec-10 02:28N 39°46' W 074°07'0 0.0
2017-Dec-10 00:34N 39°46' W 074°07'0 0.0
2017-Dec-10 00:04N 39°46' W 074°07'0 0.0
2017-Dec-09 23:49N 39°46' W 074°07'0 0.0
2017-Dec-09 23:13N 39°46' W 074°07'0 0.0
2017-Dec-09 21:16N 39°46' W 074°07'0 0.0
2017-Dec-09 16:58N 39°46' W 074°07'0 0.0
2017-Dec-09 16:19N 39°46' W 074°07'0 0.0
2017-Dec-09 15:49N 39°46' W 074°07'0 0.0
2017-Dec-09 12:07N 39°46' W 074°07'0 0.0
2017-Dec-09 11:40N 39°46' W 074°07'0 0.0
2017-Dec-09 11:22N 39°46' W 074°07'0 0.0
2017-Dec-09 10:52N 39°46' W 074°07'0 0.0
2017-Dec-09 10:28N 39°46' W 074°07'0 0.0
2017-Dec-09 09:52N 39°46' W 074°07'0 0.0
2017-Dec-08 20:55N 39°46' W 074°07'0 0.0
2017-Dec-08 19:49N 39°46' W 074°07'0 0.0
2017-Dec-08 18:28N 39°46' W 074°07'0 0.0
2017-Dec-08 11:07N 39°46' W 074°07'0 0.0
2017-Dec-08 06:34N 39°46' W 074°07'0 0.0
2017-Dec-08 06:22N 39°46' W 074°07'0 0.0
2017-Dec-08 05:10N 39°46' W 074°07'0 0.0
2017-Dec-08 04:49N 39°46' W 074°07'0 0.0
2017-Dec-08 01:49N 39°46' W 074°07'  

Dump ship's entire track history